createdAt,value
2023-05-06T00:00:34.253Z,7.60
2023-05-06T00:05:40.357Z,6.95
2023-05-06T00:10:44.444Z,7.47
2023-05-06T00:15:48.498Z,6.70
2023-05-06T00:20:53.898Z,6.95
2023-05-06T00:25:58.201Z,6.55
2023-05-06T00:31:02.298Z,6.82
2023-05-06T00:36:08.646Z,6.70
2023-05-06T00:41:12.859Z,6.75
2023-05-06T00:46:18.248Z,6.90
2023-05-06T00:51:24.598Z,6.77
2023-05-06T00:56:29.359Z,6.80
2023-05-06T01:01:33.859Z,6.70
2023-05-06T01:06:46.586Z,6.97
2023-05-06T01:11:58.063Z,6.80
2023-05-06T01:17:06.704Z,7.38
2023-05-06T01:22:14.556Z,6.40
2023-05-06T01:27:19.998Z,7.28
2023-05-06T01:32:43.913Z,6.35
2023-05-06T01:37:56.534Z,6.82
2023-05-06T01:43:03.599Z,6.85
2023-05-06T01:53:11.890Z,6.53
2023-05-06T01:58:17.473Z,6.93
2023-05-06T02:03:21.735Z,7.03
2023-05-06T02:08:26.273Z,6.75
2023-05-06T02:13:32.414Z,6.72
2023-05-06T02:18:36.951Z,6.88
2023-05-06T02:23:41.093Z,6.38
2023-05-06T02:28:46.623Z,6.45
2023-05-06T02:33:50.828Z,5.78
2023-05-06T02:38:54.863Z,6.25
2023-05-06T02:44:00.344Z,6.20
2023-05-06T02:49:04.496Z,6.47
2023-05-06T02:54:10.961Z,6.00
2023-05-06T02:59:16.429Z,6.05
2023-05-06T03:04:21.317Z,6.03
2023-05-06T03:09:25.470Z,5.63
2023-05-06T03:14:33.495Z,5.80
2023-05-06T03:19:37.790Z,5.20
2023-05-06T03:24:44.316Z,6.40
2023-05-06T03:29:49.852Z,5.60
2023-05-06T03:34:55.668Z,5.95
2023-05-06T03:40:00.839Z,5.35
2023-05-06T03:45:10.959Z,5.20
2023-05-06T03:50:17.120Z,5.55
2023-05-06T03:55:21.330Z,5.77
2023-05-06T04:00:27.143Z,5.05
2023-05-06T04:05:32.319Z,5.70
2023-05-06T04:10:41.112Z,5.68
2023-05-06T04:15:54.317Z,5.27
2023-05-06T04:21:03.670Z,5.63
2023-05-06T04:26:13.128Z,5.65
2023-05-06T04:31:20.754Z,5.03
2023-05-06T04:36:27.607Z,5.50
2023-05-06T04:41:49.758Z,6.03
2023-05-06T04:47:01.461Z,5.22
2023-05-06T04:52:06.210Z,5.53
2023-05-06T04:57:11.356Z,5.50
2023-05-06T05:02:19.203Z,6.35
2023-05-06T05:07:23.948Z,6.07
2023-05-06T05:12:28.716Z,5.75
2023-05-06T05:17:35.084Z,5.95
2023-05-06T05:22:40.746Z,5.82
2023-05-06T05:27:44.911Z,5.95
2023-05-06T05:32:50.851Z,5.78
2023-05-06T05:37:55.728Z,6.00
2023-05-06T05:43:00.559Z,5.93
2023-05-06T05:48:12.055Z,5.85
2023-05-06T05:53:16.558Z,5.50
2023-05-06T05:58:20.979Z,5.30
2023-05-06T06:03:27.340Z,5.03
2023-05-06T06:08:32.473Z,5.40
2023-05-06T06:13:36.744Z,5.25
2023-05-06T06:18:42.137Z,4.93
2023-05-06T06:23:48.747Z,5.60
2023-05-06T06:33:58.699Z,5.63
2023-05-06T06:39:02.976Z,4.85
2023-05-06T06:44:07.321Z,6.05
2023-05-06T06:49:13.306Z,5.78
2023-05-06T06:54:19.915Z,6.18
2023-05-06T06:59:24.233Z,5.30
2023-05-06T07:04:36.899Z,6.50
2023-05-06T07:09:41.626Z,5.68
2023-05-06T07:14:51.460Z,5.95
2023-05-06T07:19:57.184Z,5.85
2023-05-06T07:25:01.254Z,6.28
2023-05-06T07:30:06.429Z,6.88
2023-05-06T07:35:12.326Z,7.00
2023-05-06T07:40:17.032Z,5.70
2023-05-06T07:45:23.560Z,7.05
2023-05-06T07:50:29.047Z,6.20
2023-05-06T07:55:35.102Z,7.50
2023-05-06T08:00:39.425Z,5.93
2023-05-06T08:05:44.806Z,7.30
2023-05-06T08:10:48.796Z,9.05
2023-05-06T08:15:53.134Z,8.80
2023-05-06T08:20:58.629Z,8.80
2023-05-06T08:26:02.976Z,9.05
2023-05-06T08:31:06.966Z,7.90
2023-05-06T08:36:12.575Z,8.25
2023-05-06T08:41:20.001Z,7.70
2023-05-06T08:46:24.097Z,8.88
2023-05-06T08:51:31.893Z,7.68
2023-05-06T08:56:37.517Z,8.77
2023-05-06T09:01:41.974Z,8.57
2023-05-06T09:06:47.503Z,7.53
2023-05-06T09:11:54.194Z,8.82
2023-05-06T09:16:58.375Z,7.40
2023-05-06T09:22:05.008Z,7.63
2023-05-06T09:27:10.492Z,6.38
2023-05-06T09:32:16.890Z,7.67
2023-05-06T09:37:22.407Z,7.35
2023-05-06T09:42:28.860Z,6.55
2023-05-06T09:47:35.709Z,6.30
2023-05-06T09:52:41.350Z,5.10
2023-05-06T09:57:46.104Z,3.30
2023-05-06T10:02:50.906Z,4.18
2023-05-06T10:07:58.323Z,3.50
2023-05-06T10:13:04.557Z,3.60
2023-05-06T10:18:09.882Z,3.15
2023-05-06T10:23:25.650Z,2.42
2023-05-06T10:28:31.836Z,2.67
2023-05-06T10:33:36.270Z,2.55
2023-05-06T10:38:44.894Z,2.70
2023-05-06T10:43:49.350Z,2.60
2023-05-06T10:49:21.044Z,1.73
2023-05-06T10:54:30.205Z,2.03
2023-05-06T10:59:34.238Z,2.00
2023-05-06T11:04:38.525Z,1.67
2023-05-06T11:10:02.136Z,1.60
2023-05-06T11:15:22.651Z,1.52
2023-05-06T11:20:27.669Z,1.27
2023-05-06T11:25:45.024Z,1.25
2023-05-06T11:30:57.058Z,1.38
2023-05-06T11:36:01.940Z,1.17
2023-05-06T11:41:07.402Z,0.90
2023-05-06T11:46:11.650Z,0.90
2023-05-06T11:51:16.290Z,0.77
2023-05-06T11:56:21.802Z,1.00
2023-05-06T12:01:25.852Z,0.70
2023-05-06T12:06:35.476Z,0.95
2023-05-06T12:11:44.281Z,1.00
2023-05-06T12:16:49.174Z,1.35
2023-05-06T12:21:53.479Z,0.80
2023-05-06T12:26:59.033Z,0.80
2023-05-06T12:32:11.521Z,0.90
2023-05-06T12:37:26.032Z,1.15
2023-05-06T12:42:31.841Z,0.70
2023-05-06T12:47:36.000Z,0.70
2023-05-06T12:52:45.548Z,0.60
2023-05-06T12:57:52.152Z,1.02
2023-05-06T13:08:00.480Z,0.65
2023-05-06T13:13:08.564Z,0.82
2023-05-06T13:18:17.964Z,0.63
2023-05-06T13:23:22.706Z,0.70
2023-05-06T13:28:32.216Z,0.70
2023-05-06T13:33:37.192Z,0.65
2023-05-06T13:38:41.432Z,0.73
2023-05-06T13:43:48.473Z,0.70
2023-05-06T13:48:55.531Z,0.70
2023-05-06T13:53:59.873Z,0.60
2023-05-06T13:59:05.602Z,0.93
2023-05-06T14:04:10.315Z,0.60
2023-05-06T14:09:14.415Z,0.70
2023-05-06T14:14:20.205Z,1.02
2023-05-06T14:19:24.613Z,0.60
2023-05-06T14:24:31.522Z,0.70
2023-05-06T14:29:37.167Z,0.70
2023-05-06T14:34:41.203Z,0.70
2023-05-06T14:39:45.649Z,0.80
2023-05-06T14:44:51.418Z,1.00
2023-05-06T14:49:55.538Z,0.93
2023-05-06T14:54:59.833Z,0.88
2023-05-06T15:00:10.183Z,0.80
2023-05-06T15:05:16.303Z,0.80
2023-05-06T15:10:20.935Z,0.60
2023-05-06T15:15:26.388Z,1.00
2023-05-06T15:20:30.919Z,0.85
2023-05-06T15:25:36.487Z,0.60
2023-05-06T15:30:42.310Z,0.93
2023-05-06T15:35:46.365Z,1.10
2023-05-06T15:40:52.811Z,1.00
2023-05-06T15:46:00.126Z,0.70
2023-05-06T15:51:04.858Z,0.70
2023-05-06T15:56:18.300Z,1.15
2023-05-06T16:01:44.961Z,0.68
2023-05-06T16:06:48.548Z,1.05
2023-05-06T16:11:54.580Z,0.90
2023-05-06T16:17:00.055Z,1.40
2023-05-06T16:22:04.842Z,1.25
2023-05-06T16:27:08.879Z,0.80
2023-05-06T16:32:14.395Z,0.70
2023-05-06T16:37:18.507Z,0.60
2023-05-06T16:42:22.682Z,0.80
2023-05-06T16:47:28.393Z,0.70
2023-05-06T16:52:32.654Z,1.10
2023-05-06T16:57:36.682Z,0.90
2023-05-06T17:02:42.380Z,1.00
2023-05-06T17:07:46.812Z,0.95
2023-05-06T17:12:51.437Z,1.23
2023-05-06T17:18:01.175Z,1.70
2023-05-06T17:23:05.626Z,2.05
2023-05-06T17:28:09.701Z,1.20
2023-05-06T17:33:17.494Z,2.67
2023-05-06T17:38:21.593Z,2.15
2023-05-06T17:43:25.803Z,2.10
2023-05-06T17:48:31.271Z,2.92
2023-05-06T17:54:20.301Z,2.05
2023-05-06T17:59:30.582Z,2.20
2023-05-06T18:04:36.446Z,2.85
2023-05-06T18:09:40.789Z,2.70
2023-05-06T18:14:44.878Z,3.13
2023-05-06T18:19:50.313Z,3.10
2023-05-06T18:24:55.454Z,3.78
2023-05-06T18:30:00.293Z,3.50
2023-05-06T18:35:06.292Z,3.40
2023-05-06T18:40:11.391Z,3.77
2023-05-06T18:45:15.644Z,3.38
2023-05-06T18:50:21.223Z,4.43
2023-05-06T18:55:25.637Z,3.70
2023-05-06T19:00:30.653Z,3.45
2023-05-06T19:05:37.915Z,4.00
2023-05-06T19:10:43.771Z,5.05
2023-05-06T19:15:48.124Z,3.60
2023-05-06T19:21:06.215Z,3.58
2023-05-06T19:26:11.211Z,4.82
2023-05-06T19:31:15.320Z,3.38
2023-05-06T19:36:20.836Z,3.88
2023-05-06T19:41:25.027Z,3.70
2023-05-06T19:46:29.192Z,3.85
2023-05-06T19:51:42.139Z,3.92
2023-05-06T19:56:46.496Z,3.42
2023-05-06T20:01:50.847Z,3.47
2023-05-06T20:06:57.906Z,3.40
2023-05-06T20:12:02.602Z,3.60
2023-05-06T20:17:06.657Z,4.25
2023-05-06T20:22:12.151Z,3.30
2023-05-06T20:27:16.403Z,2.67
2023-05-06T20:32:20.433Z,2.83
2023-05-06T20:37:26.570Z,2.65
2023-05-06T20:42:30.623Z,2.93
2023-05-06T20:47:35.011Z,2.75
2023-05-06T20:52:40.430Z,2.92
2023-05-06T20:57:45.796Z,3.15
2023-05-06T21:02:49.963Z,2.85
2023-05-06T21:07:56.782Z,3.30
2023-05-06T21:13:02.185Z,3.53
2023-05-06T21:18:06.430Z,3.13
2023-05-06T21:23:11.987Z,3.00
2023-05-06T21:28:16.069Z,3.40
2023-05-06T21:33:20.140Z,3.90
2023-05-06T21:38:27.789Z,3.50
2023-05-06T21:43:33.341Z,3.70
2023-05-06T21:48:37.568Z,3.92
2023-05-06T21:53:43.023Z,3.67
2023-05-06T21:58:47.194Z,3.92
2023-05-06T22:03:51.189Z,3.97
2023-05-06T22:08:56.759Z,4.38
2023-05-06T22:14:01.045Z,4.95
2023-05-06T22:19:06.787Z,4.60
2023-05-06T22:24:12.338Z,5.00
2023-05-06T22:29:16.416Z,4.70
2023-05-06T22:34:20.611Z,5.28
2023-05-06T22:39:26.512Z,4.13
2023-05-06T22:44:32.887Z,3.80
2023-05-06T22:49:36.998Z,4.15
2023-05-06T22:54:45.562Z,4.55
2023-05-06T22:59:49.694Z,5.20
2023-05-06T23:04:53.874Z,4.47
2023-05-06T23:09:59.849Z,5.15
2023-05-06T23:15:04.571Z,4.68
2023-05-06T23:20:12.775Z,4.47
2023-05-06T23:25:18.472Z,4.82
2023-05-06T23:30:22.708Z,5.63
2023-05-06T23:35:27.125Z,5.07
2023-05-06T23:40:32.643Z,5.80
2023-05-06T23:45:36.722Z,5.22
2023-05-06T23:50:40.821Z,5.57
2023-05-06T23:55:46.438Z,5.80
